Manumu Airport

UUU · Northern Province, 巴布亚新几内亚

罗盘
风向 的 风向 230°
风: 7 kt, 3 beaufort

添加一条跑道以查看侧风和逆风信息。

添置 跑道
0 ft 2.000 4.000 6.000 8.000 10.000
Cloud Cloud
FEW 500
Cloud Cloud Cloud Cloud
SCT 10.000
METAR AYNZ 052000Z 23007KT 9999 FEW005 SCT100 23/21 Q1007

METAR Manumu Airport - UUU/UUU

Manumu Airport是,巴布亚新几内亚中的小机场。 视场标高为1.800 ft。 该领域的国际民航组织标志是UUU 它的国际航空运输协会代码是UUU.

这份报告是针对2023年2月6日 06:00, 当地时间在Nadzab Airport进行的。

机场观察

风向为230°,速度为7 kt。

可见度为10 km 或者更多。

有几云在500 ft的高度 和 疏云,零星散落的云朵在10.000 ft的高度。 没有观察到天花板。

温度和风寒是23 °C。 露点为21 °C,相对湿度为89%。 海平面上的气压为1007 hPa (QNH)。

白天

今天,太阳从06:09升起,在18:37降落。 这适用于Manumu Airport,世界夏令时可能有所不同。 当地时间与世界标准时间之间的时差为+10 小时。 当前,没有夏令时有效。

公司介绍

我们没有关于这个机场的公司信息。

体会

到Vliegles.nl去找飞行课程,跳伞和其他飞行体验。 浏览页面,了解Manumu Airport附近所有可用的活动。 你也可以使用搜索功能来寻找你所在地附近的特定飞行课程、跳伞或其他飞行体验。

乌云

500 ft FEW 几云
10.000 ft SCT 疏云,零星散落的云朵

温度 & 天气

温度 23 °C
露点 21 °C
相对湿度 89%
Kp-index 0 (0-9)

白天

日出
06:15
中午
12:27
日落
18:38

小工具

你想在你的网站上有一个关于Manumu Airport的当前航空天气(METAR)的小部件吗?

显示HTML代码

我们和第三方通过cookies跟踪您在我们网站上的互联网行为。如果你继续,我们认为你同意我们的饼干政策